createdAt,value
2019-03-09T00:01:50.315Z,44.50
2019-03-09T00:04:17.856Z,44.60
2019-03-09T00:06:45.375Z,44.50
2019-03-09T00:09:12.839Z,46.20
2019-03-09T00:11:40.285Z,45.50
2019-03-09T00:14:07.731Z,44.60
2019-03-09T00:16:35.151Z,44.50
2019-03-09T00:19:02.641Z,44.60
2019-03-09T00:21:30.123Z,44.60
2019-03-09T00:24:35.488Z,44.40
2019-03-09T00:27:12.300Z,44.50
2019-03-09T00:30:11.203Z,44.40
2019-03-09T00:32:38.644Z,44.20
2019-03-09T00:35:06.074Z,42.40
2019-03-09T00:37:33.492Z,43.80
2019-03-09T00:40:00.913Z,45.00
2019-03-09T00:42:28.364Z,43.50
2019-03-09T00:44:55.819Z,44.20
2019-03-09T00:47:23.383Z,44.30
2019-03-09T00:49:50.849Z,44.20
2019-03-09T00:52:18.341Z,45.20
2019-03-09T00:54:45.811Z,44.20
2019-03-09T00:57:13.270Z,44.10
2019-03-09T00:59:40.644Z,44.20
2019-03-09T01:02:09.207Z,44.10
2019-03-09T01:04:36.620Z,43.60
2019-03-09T01:07:04.076Z,44.10
2019-03-09T01:09:31.786Z,44.20
2019-03-09T01:11:59.202Z,44.10
2019-03-09T01:14:26.620Z,44.10
2019-03-09T01:16:54.046Z,44.10
2019-03-09T01:19:21.576Z,44.20
2019-03-09T01:21:49.040Z,44.70
2019-03-09T01:24:16.715Z,44.10
2019-03-09T01:26:44.014Z,44.20
2019-03-09T01:29:11.423Z,44.90
2019-03-09T01:31:38.946Z,44.40
2019-03-09T01:34:06.406Z,44.30
2019-03-09T01:36:33.828Z,45.00
2019-03-09T01:39:01.289Z,44.30
2019-03-09T01:41:28.600Z,43.70
2019-03-09T01:43:56.045Z,44.30
2019-03-09T01:46:23.560Z,44.20
2019-03-09T01:48:51.010Z,44.20
2019-03-09T01:51:18.408Z,44.40
2019-03-09T01:53:45.903Z,44.30
2019-03-09T01:56:13.309Z,44.40
2019-03-09T01:58:40.681Z,44.20
2019-03-09T02:01:09.124Z,44.40
2019-03-09T02:03:36.741Z,43.90
2019-03-09T02:06:04.248Z,44.40
2019-03-09T02:08:31.588Z,44.50
2019-03-09T02:10:58.952Z,44.40
2019-03-09T02:13:26.231Z,44.50
2019-03-09T02:15:53.581Z,44.90
2019-03-09T02:18:21.881Z,44.60
2019-03-09T02:20:49.166Z,44.70
2019-03-09T02:23:16.555Z,44.60
2019-03-09T02:25:43.899Z,43.70
2019-03-09T02:28:11.199Z,44.20
2019-03-09T02:30:38.590Z,44.70
2019-03-09T02:33:06.549Z,45.00
2019-03-09T02:35:34.020Z,44.50
2019-03-09T02:38:08.698Z,44.60
2019-03-09T02:40:36.592Z,45.10
2019-03-09T02:43:04.057Z,43.90
2019-03-09T02:45:31.934Z,44.50
2019-03-09T02:47:59.389Z,44.50
2019-03-09T02:50:26.925Z,44.70
2019-03-09T02:52:54.374Z,44.80
2019-03-09T02:55:21.848Z,45.50
2019-03-09T02:57:49.201Z,45.20
2019-03-09T03:00:16.672Z,46.00
2019-03-09T03:02:52.835Z,45.20
2019-03-09T03:05:20.387Z,45.20
2019-03-09T03:07:47.745Z,45.20
2019-03-09T03:10:15.183Z,45.60
2019-03-09T03:12:42.572Z,45.30
2019-03-09T03:15:10.208Z,45.80
2019-03-09T03:17:37.551Z,45.40
2019-03-09T03:20:05.206Z,45.50
2019-03-09T03:22:32.670Z,45.90
2019-03-09T03:25:00.433Z,46.20
2019-03-09T03:27:27.906Z,46.70
2019-03-09T03:29:55.203Z,46.60
2019-03-09T03:32:23.562Z,46.70
2019-03-09T03:34:50.981Z,46.30
2019-03-09T03:37:18.422Z,46.90
2019-03-09T03:39:45.887Z,47.50
2019-03-09T03:42:13.275Z,47.20
2019-03-09T03:44:46.410Z,47.30
2019-03-09T03:47:15.220Z,47.60
2019-03-09T03:49:42.789Z,47.00
2019-03-09T03:52:10.267Z,48.10
2019-03-09T03:54:37.809Z,47.70
2019-03-09T03:57:05.200Z,47.60
2019-03-09T03:59:32.526Z,47.60
2019-03-09T04:02:06.120Z,47.60
2019-03-09T04:04:33.432Z,47.60
2019-03-09T04:07:01.506Z,47.60
2019-03-09T04:09:28.874Z,47.70
2019-03-09T04:11:56.260Z,47.80
2019-03-09T04:14:23.691Z,47.30
2019-03-09T04:16:51.068Z,49.00
2019-03-09T04:19:18.409Z,46.30
2019-03-09T04:21:45.889Z,48.20
2019-03-09T04:24:13.323Z,48.30
2019-03-09T04:26:40.771Z,48.30
2019-03-09T04:29:08.217Z,49.00
2019-03-09T04:31:35.688Z,48.80
2019-03-09T04:34:03.341Z,48.50
2019-03-09T04:36:30.630Z,48.80
2019-03-09T04:38:58.110Z,48.70
2019-03-09T04:41:25.608Z,48.80
2019-03-09T04:43:52.934Z,48.80
2019-03-09T04:46:20.355Z,48.80
2019-03-09T04:48:47.716Z,49.10
2019-03-09T04:51:15.147Z,49.20
2019-03-09T04:53:42.517Z,48.50
2019-03-09T04:56:09.975Z,49.30
2019-03-09T04:58:37.437Z,49.30
2019-03-09T05:01:04.880Z,50.90
2019-03-09T05:03:32.265Z,49.40
2019-03-09T05:05:59.603Z,50.00
2019-03-09T05:09:13.572Z,49.60
2019-03-09T05:11:41.072Z,49.50
2019-03-09T05:14:14.965Z,51.00
2019-03-09T05:16:42.332Z,48.60
2019-03-09T05:19:09.683Z,50.30
2019-03-09T05:21:36.983Z,49.40
2019-03-09T05:24:04.324Z,49.40
2019-03-09T05:26:31.781Z,49.50
2019-03-09T05:28:59.256Z,49.40
2019-03-09T05:31:26.587Z,49.80
2019-03-09T05:33:53.939Z,50.00
2019-03-09T05:36:21.310Z,49.50
2019-03-09T05:38:48.611Z,49.50
2019-03-09T05:41:16.035Z,49.40
2019-03-09T05:44:06.014Z,49.60
2019-03-09T05:46:33.404Z,49.60
2019-03-09T05:49:00.806Z,50.60
2019-03-09T05:51:28.218Z,49.10
2019-03-09T05:53:55.645Z,49.40
2019-03-09T05:56:22.987Z,48.70
2019-03-09T05:58:50.333Z,49.40
2019-03-09T06:01:17.807Z,49.40
2019-03-09T06:03:45.250Z,49.40
2019-03-09T06:06:14.685Z,49.50
2019-03-09T06:08:42.546Z,49.40
2019-03-09T06:11:09.961Z,49.40
2019-03-09T06:13:37.329Z,49.80
2019-03-09T06:16:04.854Z,49.30
2019-03-09T06:18:32.345Z,49.30
2019-03-09T06:20:59.748Z,49.20
2019-03-09T06:23:27.115Z,49.00
2019-03-09T06:25:54.506Z,49.70
2019-03-09T06:28:21.936Z,48.90
2019-03-09T06:30:49.424Z,48.80
2019-03-09T06:33:22.057Z,50.00
2019-03-09T06:36:02.148Z,48.80
2019-03-09T06:38:39.519Z,48.60
2019-03-09T06:41:10.350Z,49.20
2019-03-09T06:43:37.836Z,48.40
2019-03-09T06:46:05.280Z,49.00
2019-03-09T06:48:32.634Z,48.30
2019-03-09T06:51:00.136Z,48.20
2019-03-09T06:53:27.616Z,49.20
2019-03-09T06:55:55.046Z,48.00
2019-03-09T06:58:22.484Z,48.10
2019-03-09T07:00:49.842Z,48.00
2019-03-09T07:03:17.284Z,48.00
2019-03-09T07:05:44.766Z,48.00
2019-03-09T07:08:12.166Z,47.80
2019-03-09T07:10:39.620Z,47.80
2019-03-09T07:13:07.247Z,47.60
2019-03-09T07:15:42.621Z,47.60
2019-03-09T07:18:33.515Z,47.70
2019-03-09T07:21:01.046Z,48.10
2019-03-09T07:23:28.479Z,47.70
2019-03-09T07:25:55.839Z,47.80
2019-03-09T07:28:23.317Z,48.00
2019-03-09T07:30:50.764Z,48.30
2019-03-09T07:33:18.146Z,48.20
2019-03-09T07:35:45.656Z,48.80
2019-03-09T07:38:13.035Z,49.20
2019-03-09T07:40:40.572Z,50.10
2019-03-09T07:43:07.942Z,49.30
2019-03-09T07:45:37.175Z,49.30
2019-03-09T07:48:05.791Z,47.80
2019-03-09T07:50:34.460Z,49.60
2019-03-09T07:53:01.830Z,50.10
2019-03-09T07:55:38.830Z,50.10
2019-03-09T07:58:35.733Z,50.00
2019-03-09T08:01:03.656Z,50.40
2019-03-09T08:03:35.947Z,50.00
2019-03-09T08:06:10.865Z,50.30
2019-03-09T08:08:38.242Z,48.80
2019-03-09T08:11:05.700Z,50.80
2019-03-09T08:13:33.043Z,50.60
2019-03-09T08:16:00.404Z,51.50
2019-03-09T08:18:29.747Z,50.50
2019-03-09T08:20:57.142Z,50.30
2019-03-09T08:23:44.552Z,50.40
2019-03-09T08:26:11.963Z,50.50
2019-03-09T08:28:39.381Z,50.60
2019-03-09T08:31:06.727Z,50.10
2019-03-09T08:33:38.237Z,50.50
2019-03-09T08:36:10.454Z,50.30
2019-03-09T08:38:37.822Z,50.20
2019-03-09T08:41:05.314Z,49.50
2019-03-09T08:43:33.493Z,50.10
2019-03-09T08:46:00.989Z,50.00
2019-03-09T08:48:33.946Z,50.50
2019-03-09T08:51:01.297Z,49.80
2019-03-09T08:53:31.038Z,50.30
2019-03-09T08:55:57.968Z,51.40
2019-03-09T08:58:25.373Z,49.70
2019-03-09T09:00:52.814Z,49.50
2019-03-09T09:03:20.267Z,49.30
2019-03-09T09:05:47.611Z,49.20
2019-03-09T09:08:15.053Z,49.10
2019-03-09T09:10:42.476Z,49.00
2019-03-09T09:13:09.908Z,48.90
2019-03-09T09:15:37.389Z,48.50
2019-03-09T09:18:04.796Z,50.30
2019-03-09T09:20:32.236Z,48.70
2019-03-09T09:22:59.613Z,48.60
2019-03-09T09:25:26.968Z,48.70
2019-03-09T09:27:54.417Z,48.60
2019-03-09T09:30:23.727Z,48.50
2019-03-09T09:32:51.096Z,49.50
2019-03-09T09:35:18.824Z,48.50
2019-03-09T09:37:47.438Z,48.40
2019-03-09T09:40:17.336Z,48.20
2019-03-09T09:42:44.899Z,48.30
2019-03-09T09:45:12.948Z,48.20
2019-03-09T09:47:42.504Z,47.80
2019-03-09T09:50:10.112Z,47.40
2019-03-09T09:52:37.467Z,46.80
2019-03-09T09:55:07.051Z,46.20
2019-03-09T09:57:34.387Z,45.00
2019-03-09T10:00:01.840Z,45.30
2019-03-09T10:02:29.238Z,44.90
2019-03-09T10:04:56.590Z,44.60
2019-03-09T10:07:24.078Z,44.50
2019-03-09T10:09:51.498Z,44.30
2019-03-09T10:12:19.104Z,44.40
2019-03-09T10:14:46.454Z,43.90
2019-03-09T10:17:13.800Z,44.70
2019-03-09T10:19:41.158Z,44.30
2019-03-09T10:22:08.674Z,43.70
2019-03-09T10:24:36.185Z,43.40
2019-03-09T10:27:03.646Z,43.50
2019-03-09T10:29:31.106Z,43.40
2019-03-09T10:31:58.431Z,43.20
2019-03-09T10:34:25.948Z,43.00
2019-03-09T10:36:53.407Z,42.50
2019-03-09T10:39:20.876Z,42.60
2019-03-09T10:41:48.322Z,41.80
2019-03-09T10:44:15.892Z,41.50
2019-03-09T10:46:43.263Z,41.20
2019-03-09T10:49:10.713Z,41.20
2019-03-09T10:51:39.016Z,41.20
2019-03-09T10:54:06.606Z,41.40
2019-03-09T10:56:34.016Z,41.50
2019-03-09T10:59:01.483Z,41.50
2019-03-09T11:01:28.835Z,41.70
2019-03-09T11:03:56.171Z,42.00
2019-03-09T11:06:23.661Z,42.30
2019-03-09T11:08:51.237Z,42.40
2019-03-09T11:11:18.745Z,42.60
2019-03-09T11:13:51.871Z,42.70
2019-03-09T11:16:15.391Z,43.00
2019-03-09T11:18:44.813Z,43.20
2019-03-09T11:21:12.194Z,43.20
2019-03-09T11:23:39.715Z,43.10
2019-03-09T11:26:07.280Z,43.30
2019-03-09T11:28:34.679Z,43.50
2019-03-09T11:31:01.911Z,45.00
2019-03-09T11:33:29.376Z,43.60
2019-03-09T11:35:56.837Z,43.80
2019-03-09T11:38:24.283Z,43.70
2019-03-09T11:40:57.384Z,43.70
2019-03-09T11:43:20.872Z,43.60
2019-03-09T11:45:48.231Z,42.10
2019-03-09T11:48:15.689Z,43.60
2019-03-09T11:50:43.032Z,43.50
2019-03-09T11:53:10.547Z,43.60
2019-03-09T11:55:37.953Z,43.60
2019-03-09T11:58:05.410Z,43.50
2019-03-09T12:00:34.268Z,43.50
2019-03-09T12:03:01.583Z,43.40
2019-03-09T12:05:28.922Z,43.30
2019-03-09T12:07:58.135Z,43.30
2019-03-09T12:10:25.673Z,43.40
2019-03-09T12:12:53.899Z,43.30
2019-03-09T12:15:21.294Z,43.40
2019-03-09T12:17:50.822Z,43.40
2019-03-09T12:20:19.517Z,43.40
2019-03-09T12:23:19.518Z,43.30
2019-03-09T12:25:47.615Z,43.10
2019-03-09T12:28:15.003Z,43.60
2019-03-09T12:30:42.506Z,43.00
2019-03-09T12:33:10.296Z,42.90
2019-03-09T12:35:46.097Z,43.30
2019-03-09T12:38:13.574Z,43.50
2019-03-09T12:40:41.000Z,43.50
2019-03-09T12:43:08.498Z,43.30
2019-03-09T12:45:36.288Z,43.10
2019-03-09T12:48:03.697Z,42.80
2019-03-09T12:50:31.743Z,42.40
2019-03-09T12:52:59.782Z,41.50
2019-03-09T12:55:27.195Z,41.20
2019-03-09T12:57:58.818Z,40.20
2019-03-09T13:00:26.242Z,40.00
2019-03-09T13:02:53.765Z,38.70
2019-03-09T13:05:21.657Z,40.00
2019-03-09T13:07:49.013Z,39.60
2019-03-09T13:10:22.401Z,39.60
2019-03-09T13:12:49.965Z,39.40
2019-03-09T13:15:18.410Z,39.10
2019-03-09T13:17:51.851Z,38.60
2019-03-09T13:20:19.546Z,38.70
2019-03-09T13:22:47.338Z,38.50
2019-03-09T13:25:15.482Z,38.20
2019-03-09T13:27:42.852Z,37.90
2019-03-09T13:30:12.736Z,37.50
2019-03-09T13:32:40.957Z,37.50
2019-03-09T13:35:08.763Z,37.00
2019-03-09T13:37:36.218Z,37.00
2019-03-09T13:40:03.954Z,36.30
2019-03-09T13:42:31.556Z,37.00
2019-03-09T13:44:59.033Z,37.10
2019-03-09T13:47:26.608Z,37.10
2019-03-09T13:49:54.152Z,37.20
2019-03-09T13:52:21.643Z,37.60
2019-03-09T13:54:49.637Z,37.80
2019-03-09T13:57:17.173Z,38.00
2019-03-09T13:59:44.640Z,38.10
2019-03-09T14:02:12.332Z,38.40
2019-03-09T14:04:40.082Z,38.80
2019-03-09T14:07:07.963Z,38.80
2019-03-09T14:09:35.574Z,39.00
2019-03-09T14:12:03.550Z,39.30
2019-03-09T14:14:34.181Z,39.50
2019-03-09T14:17:01.986Z,39.80
2019-03-09T14:19:30.592Z,39.90
2019-03-09T14:21:58.328Z,40.00
2019-03-09T14:24:25.910Z,40.30
2019-03-09T14:26:53.568Z,40.30
2019-03-09T14:29:22.257Z,41.00
2019-03-09T14:31:50.420Z,41.40
2019-03-09T14:34:19.256Z,41.00
2019-03-09T14:36:46.802Z,41.10
2019-03-09T14:39:14.930Z,40.90
2019-03-09T14:41:42.570Z,41.40
2019-03-09T14:44:10.085Z,41.50
2019-03-09T14:46:37.666Z,41.60
2019-03-09T14:49:05.228Z,41.20
2019-03-09T14:51:34.026Z,41.40
2019-03-09T14:54:01.487Z,42.10
2019-03-09T14:56:28.872Z,42.20
2019-03-09T14:58:57.501Z,42.20
2019-03-09T15:01:25.132Z,42.30
2019-03-09T15:03:53.722Z,42.00
2019-03-09T15:06:22.181Z,42.50
2019-03-09T15:08:52.127Z,43.60
2019-03-09T15:14:06.803Z,43.00
2019-03-09T15:16:34.399Z,42.70
2019-03-09T15:19:01.929Z,42.00
2019-03-09T15:21:29.468Z,42.80
2019-03-09T15:23:57.026Z,42.80
2019-03-09T15:26:24.519Z,42.90
2019-03-09T15:28:51.878Z,42.90
2019-03-09T15:31:19.262Z,43.00
2019-03-09T15:33:46.876Z,42.90
2019-03-09T15:36:14.354Z,42.90
2019-03-09T15:38:41.818Z,42.90
2019-03-09T15:41:09.273Z,43.00
2019-03-09T15:43:36.864Z,43.10
2019-03-09T15:46:04.299Z,43.10
2019-03-09T15:48:32.042Z,43.00
2019-03-09T15:50:59.713Z,43.00
2019-03-09T15:53:27.147Z,42.80
2019-03-09T15:55:54.894Z,43.00
2019-03-09T15:58:22.697Z,43.50
2019-03-09T16:00:50.287Z,44.00
2019-03-09T16:03:18.486Z,43.80
2019-03-09T16:05:46.624Z,44.80
2019-03-09T16:08:14.117Z,45.40
2019-03-09T16:10:41.596Z,45.60
2019-03-09T16:13:09.014Z,45.90
2019-03-09T16:15:36.434Z,46.20
2019-03-09T16:18:04.066Z,46.00
2019-03-09T16:20:32.276Z,45.80
2019-03-09T16:22:59.816Z,46.60
2019-03-09T16:25:28.998Z,46.80
2019-03-09T16:27:56.787Z,46.70
2019-03-09T16:30:24.320Z,46.30
2019-03-09T16:32:51.944Z,47.00
2019-03-09T16:35:19.648Z,47.10
2019-03-09T16:37:47.555Z,46.40
2019-03-09T16:40:15.647Z,47.30
2019-03-09T16:42:43.422Z,47.40
2019-03-09T16:45:11.568Z,47.50
2019-03-09T16:47:39.667Z,47.30
2019-03-09T16:50:08.727Z,46.70
2019-03-09T16:52:36.858Z,46.70
2019-03-09T16:55:05.604Z,46.80
2019-03-09T16:57:32.922Z,46.70
2019-03-09T17:00:00.853Z,47.00
2019-03-09T17:02:28.911Z,46.90
2019-03-09T17:04:56.623Z,46.90
2019-03-09T17:07:24.623Z,47.60
2019-03-09T17:09:52.422Z,47.30
2019-03-09T17:12:20.365Z,47.30
2019-03-09T17:14:48.124Z,47.20
2019-03-09T17:17:15.716Z,47.30
2019-03-09T17:19:43.194Z,47.00
2019-03-09T17:22:11.107Z,47.20
2019-03-09T17:24:38.814Z,47.20
2019-03-09T17:29:34.095Z,47.10
2019-03-09T17:32:02.053Z,46.20
2019-03-09T17:34:30.160Z,47.30
2019-03-09T17:36:57.772Z,47.20
2019-03-09T17:39:27.500Z,47.30
2019-03-09T17:41:56.449Z,47.40
2019-03-09T17:44:26.652Z,47.20
2019-03-09T17:46:56.558Z,46.20
2019-03-09T17:49:26.470Z,47.30
2019-03-09T17:51:54.594Z,47.70
2019-03-09T17:54:22.626Z,47.70
2019-03-09T17:56:50.364Z,47.70
2019-03-09T17:59:18.089Z,47.90
2019-03-09T18:01:47.946Z,48.10
2019-03-09T18:04:15.933Z,47.90
2019-03-09T18:06:43.511Z,48.40
2019-03-09T18:09:12.369Z,48.10
2019-03-09T18:11:42.371Z,48.00
2019-03-09T18:14:09.911Z,48.10
2019-03-09T18:16:37.828Z,48.50
2019-03-09T18:19:25.228Z,48.40
2019-03-09T18:21:55.979Z,48.30
2019-03-09T18:24:23.670Z,48.30
2019-03-09T18:26:51.388Z,48.10
2019-03-09T18:29:21.473Z,48.20
2019-03-09T18:38:33.890Z,48.50
2019-03-09T18:41:36.837Z,48.20
2019-03-09T18:47:58.579Z,48.40
2019-03-09T19:00:14.354Z,48.30
2019-03-09T19:02:47.875Z,48.50
2019-03-09T19:05:15.310Z,48.50
2019-03-09T19:07:42.942Z,50.10
2019-03-09T19:10:11.380Z,49.10
2019-03-09T19:12:38.865Z,49.20
2019-03-09T19:15:09.106Z,49.00
2019-03-09T19:17:36.619Z,49.30
2019-03-09T19:20:04.790Z,48.50
2019-03-09T19:22:33.045Z,49.20
2019-03-09T19:25:00.554Z,49.20
2019-03-09T19:27:28.112Z,49.20
2019-03-09T19:29:55.676Z,49.20
2019-03-09T19:32:23.104Z,49.10
2019-03-09T19:34:50.720Z,49.10
2019-03-09T19:37:21.219Z,48.80
2019-03-09T19:39:48.806Z,48.70
2019-03-09T19:42:16.432Z,48.60
2019-03-09T19:44:44.131Z,48.70
2019-03-09T19:47:11.635Z,48.70
2019-03-09T19:49:39.134Z,48.70
2019-03-09T19:52:06.823Z,48.70
2019-03-09T19:54:34.425Z,48.80
2019-03-09T19:57:01.986Z,48.80
2019-03-09T19:59:29.734Z,48.60
2019-03-09T20:01:58.597Z,48.60
2019-03-09T20:04:27.182Z,48.50
2019-03-09T20:06:55.003Z,48.40
2019-03-09T20:09:22.793Z,48.10
2019-03-09T20:11:50.434Z,48.00
2019-03-09T20:14:37.559Z,48.10
2019-03-09T20:17:06.236Z,48.00
2019-03-09T20:19:33.783Z,48.00
2019-03-09T20:22:01.370Z,47.80
2019-03-09T20:24:28.924Z,47.90
2019-03-09T20:26:56.428Z,47.70
2019-03-09T20:29:24.118Z,47.80
2019-03-09T20:31:59.019Z,47.60
2019-03-09T20:34:26.614Z,47.60
2019-03-09T20:36:54.316Z,47.30
2019-03-09T20:39:22.073Z,47.40
2019-03-09T20:41:49.606Z,47.30
2019-03-09T20:44:17.147Z,47.30
2019-03-09T20:46:44.742Z,47.30
2019-03-09T20:49:12.277Z,47.40
2019-03-09T20:51:39.777Z,47.30
2019-03-09T20:54:07.272Z,47.40
2019-03-09T20:56:34.791Z,47.30
2019-03-09T20:59:02.375Z,47.20
2019-03-09T21:01:29.936Z,47.20
2019-03-09T21:03:57.423Z,46.90
2019-03-09T21:06:25.009Z,46.80
2019-03-09T21:08:52.573Z,46.80
2019-03-09T21:11:20.265Z,46.80
2019-03-09T21:13:47.766Z,46.70
2019-03-09T21:16:15.495Z,46.70
2019-03-09T21:18:43.205Z,46.90
2019-03-09T21:21:10.730Z,45.90
2019-03-09T21:23:38.211Z,47.70
2019-03-09T21:26:05.840Z,46.90
2019-03-09T21:29:01.808Z,47.00
2019-03-09T21:31:29.602Z,47.30
2019-03-09T21:33:57.213Z,47.20
2019-03-09T21:36:25.902Z,47.10
2019-03-09T21:38:59.794Z,47.00
2019-03-09T21:41:31.503Z,47.10
2019-03-09T21:43:59.052Z,47.20
2019-03-09T21:46:26.700Z,47.00
2019-03-09T21:48:54.427Z,47.00
2019-03-09T21:51:22.124Z,47.10
2019-03-09T21:53:49.790Z,47.10
2019-03-09T21:56:17.298Z,47.20
2019-03-09T21:58:44.917Z,47.20
2019-03-09T22:01:12.654Z,46.40
2019-03-09T22:03:40.381Z,47.50
2019-03-09T22:06:09.013Z,47.30
2019-03-09T22:08:36.586Z,47.30
2019-03-09T22:11:04.354Z,47.40
2019-03-09T22:13:31.913Z,47.30
2019-03-09T22:15:59.979Z,47.40
2019-03-09T22:18:27.832Z,47.40
2019-03-09T22:20:55.387Z,47.50
2019-03-09T22:23:23.668Z,47.70
2019-03-09T22:25:51.241Z,47.70
2019-03-09T22:28:19.347Z,47.70
2019-03-09T22:30:47.843Z,47.80
2019-03-09T22:33:15.552Z,47.70
2019-03-09T22:35:43.102Z,47.60
2019-03-09T22:38:10.903Z,47.90
2019-03-09T22:40:38.364Z,47.90
2019-03-09T22:43:06.279Z,47.90
2019-03-09T22:45:33.941Z,48.10
2019-03-09T22:48:01.914Z,48.00
2019-03-09T22:50:29.414Z,48.20
2019-03-09T22:52:56.871Z,48.30
2019-03-09T22:55:25.457Z,49.10
2019-03-09T22:57:52.803Z,48.50
2019-03-09T23:00:21.869Z,48.40
2019-03-09T23:02:49.360Z,48.50
2019-03-09T23:05:16.819Z,48.60
2019-03-09T23:07:44.405Z,48.60
2019-03-09T23:10:13.471Z,48.60
2019-03-09T23:12:40.698Z,48.80
2019-03-09T23:15:10.304Z,48.60
2019-03-09T23:17:37.718Z,48.70
2019-03-09T23:20:05.957Z,48.80
2019-03-09T23:22:33.396Z,48.80
2019-03-09T23:25:00.812Z,48.50
2019-03-09T23:27:28.291Z,48.60
2019-03-09T23:29:55.780Z,49.50
2019-03-09T23:32:23.239Z,48.70
2019-03-09T23:34:52.129Z,48.80
2019-03-09T23:37:19.558Z,48.80
2019-03-09T23:39:46.999Z,48.80
2019-03-09T23:42:14.468Z,48.70
2019-03-09T23:44:41.789Z,48.80
2019-03-09T23:47:09.267Z,48.90
2019-03-09T23:49:36.638Z,48.80
2019-03-09T23:52:03.952Z,48.90
2019-03-09T23:54:31.469Z,48.80
2019-03-09T23:56:58.899Z,48.80
2019-03-09T23:59:26.427Z,48.80
